Airport View

Enter AWOS ICAO identifier for current METAR.

ex. KFNL

KXSA 261155Z AUTO 00000KT 10SM CLR 22/20 A3010 RMK AO2 T02220197 10222 20171

26 Jun 2019 12:09

Frequency: 125.775

Phone: 804-445-8724

Other Area AWOS: KFYJ - KW96 - KW75 - KOFP

TAF KRIC 261120Z 2612/2712 35005KT P6SM SKC